createdAt,value
2018-11-01T00:02:01.468Z,13.33
2018-11-01T00:04:30.648Z,14.33
2018-11-01T00:06:58.936Z,12.43
2018-11-01T00:09:27.128Z,13.63
2018-11-01T00:11:55.344Z,11.40
2018-11-01T00:14:23.535Z,13.23
2018-11-01T00:16:51.751Z,9.93
2018-11-01T00:19:19.948Z,12.27
2018-11-01T00:21:48.159Z,13.20
2018-11-01T00:24:16.362Z,9.77
2018-11-01T00:26:44.567Z,10.67
2018-11-01T00:29:12.772Z,12.60
2018-11-01T00:31:41.008Z,10.90
2018-11-01T00:34:09.222Z,9.47
2018-11-01T00:36:37.504Z,11.40
2018-11-01T00:39:08.339Z,11.37
2018-11-01T00:41:36.540Z,13.90
2018-11-01T00:44:05.351Z,12.00
2018-11-01T00:46:33.584Z,11.57
2018-11-01T00:49:01.805Z,12.03
2018-11-01T00:51:30.025Z,14.83
2018-11-01T00:53:58.299Z,11.53
2018-11-01T00:56:26.496Z,12.87
2018-11-01T00:58:54.768Z,12.37
2018-11-01T01:01:22.991Z,11.87
2018-11-01T01:03:51.204Z,11.23
2018-11-01T01:06:19.419Z,12.10
2018-11-01T01:08:47.647Z,11.20
2018-11-01T01:11:15.867Z,11.83
2018-11-01T01:13:44.502Z,11.80
2018-11-01T01:16:12.803Z,11.83
2018-11-01T01:18:41.034Z,13.27
2018-11-01T01:21:09.244Z,13.40
2018-11-01T01:23:37.461Z,12.47
2018-11-01T01:26:06.232Z,10.67
2018-11-01T01:28:34.452Z,11.27
2018-11-01T01:31:02.660Z,12.90
2018-11-01T01:33:30.903Z,10.23
2018-11-01T01:35:59.096Z,10.07
2018-11-01T01:38:27.307Z,11.27
2018-11-01T01:40:55.517Z,12.63
2018-11-01T01:43:23.724Z,9.53
2018-11-01T01:45:51.933Z,13.37
2018-11-01T01:48:20.171Z,10.40
2018-11-01T01:50:48.447Z,11.47
2018-11-01T01:53:16.643Z,11.03
2018-11-01T01:55:44.828Z,9.53
2018-11-01T01:58:13.056Z,9.13
2018-11-01T02:00:41.275Z,11.43
2018-11-01T02:03:09.483Z,11.23
2018-11-01T02:05:37.680Z,9.53
2018-11-01T02:08:06.080Z,8.63
2018-11-01T02:10:34.283Z,11.07
2018-11-01T02:13:02.503Z,9.93
2018-11-01T02:15:30.712Z,8.93
2018-11-01T02:17:58.920Z,8.30
2018-11-01T02:20:27.117Z,10.30
2018-11-01T02:22:55.333Z,10.07
2018-11-01T02:25:23.567Z,10.47
2018-11-01T02:27:57.137Z,10.57
2018-11-01T02:30:25.363Z,10.27
2018-11-01T02:32:53.580Z,9.03
2018-11-01T02:35:21.802Z,11.57
2018-11-01T02:37:50.084Z,13.07
2018-11-01T02:40:18.348Z,10.13
2018-11-01T02:42:46.615Z,10.63
2018-11-01T02:45:15.344Z,11.47
2018-11-01T02:47:43.547Z,11.63
2018-11-01T02:50:12.622Z,9.40
2018-11-01T02:52:40.964Z,11.23
2018-11-01T02:55:09.791Z,11.93
2018-11-01T02:57:38.064Z,11.63
2018-11-01T03:00:08.288Z,15.63
2018-11-01T03:02:36.487Z,10.97
2018-11-01T03:05:05.100Z,14.83
2018-11-01T03:07:33.308Z,14.10
2018-11-01T03:10:01.620Z,13.67
2018-11-01T03:12:29.847Z,11.70
2018-11-01T03:14:58.072Z,12.43
2018-11-01T03:17:26.305Z,11.70
2018-11-01T03:19:54.554Z,11.40
2018-11-01T03:22:22.774Z,11.87
2018-11-01T03:24:50.987Z,12.87
2018-11-01T03:27:19.200Z,15.67
2018-11-01T03:29:47.432Z,10.70
2018-11-01T03:32:15.640Z,12.63
2018-11-01T03:34:43.856Z,12.00
2018-11-01T03:37:12.055Z,15.37
2018-11-01T03:39:40.332Z,11.30
2018-11-01T03:42:08.558Z,12.27
2018-11-01T03:44:36.784Z,13.90
2018-11-01T03:47:05.019Z,11.20
2018-11-01T03:49:33.232Z,13.57
2018-11-01T03:52:01.461Z,11.93
2018-11-01T03:54:29.709Z,15.67
2018-11-01T03:56:57.920Z,12.37
2018-11-01T03:59:26.782Z,15.03
2018-11-01T04:01:54.995Z,14.97
2018-11-01T04:04:23.233Z,15.43
2018-11-01T04:06:51.422Z,15.03
2018-11-01T04:09:19.635Z,14.30
2018-11-01T04:11:47.839Z,20.90
2018-11-01T04:14:16.044Z,15.73
2018-11-01T04:16:44.292Z,14.33
2018-11-01T04:19:12.481Z,13.77
2018-11-01T04:21:40.708Z,14.63
2018-11-01T04:24:08.911Z,14.20
2018-11-01T04:26:37.116Z,15.00
2018-11-01T04:29:05.639Z,16.87
2018-11-01T04:31:33.890Z,17.00
2018-11-01T04:34:02.109Z,16.20
2018-11-01T04:36:30.333Z,16.13
2018-11-01T04:38:58.530Z,15.17
2018-11-01T04:41:26.739Z,15.10
2018-11-01T04:43:54.929Z,13.33
2018-11-01T04:46:23.186Z,17.67
2018-11-01T04:48:51.391Z,15.33
2018-11-01T04:51:19.604Z,16.67
2018-11-01T04:53:47.827Z,17.63
2018-11-01T04:56:16.056Z,15.40
2018-11-01T04:58:44.265Z,18.03
2018-11-01T05:01:12.508Z,15.97
2018-11-01T05:03:40.718Z,13.17
2018-11-01T05:06:08.947Z,13.43
2018-11-01T05:08:37.154Z,16.13
2018-11-01T05:11:05.415Z,15.20
2018-11-01T05:13:33.617Z,13.33
2018-11-01T05:16:01.830Z,13.97
2018-11-01T05:18:30.052Z,16.60
2018-11-01T05:20:58.279Z,19.27
2018-11-01T05:23:26.511Z,17.60
2018-11-01T05:25:54.811Z,18.50
2018-11-01T05:28:22.956Z,16.73
2018-11-01T05:30:51.180Z,18.87
2018-11-01T05:33:19.399Z,19.30
2018-11-01T05:35:47.701Z,20.23
2018-11-01T05:38:15.923Z,17.00
2018-11-01T05:40:44.171Z,16.90
2018-11-01T05:43:17.750Z,16.60
2018-11-01T05:45:45.986Z,18.73
2018-11-01T05:48:14.197Z,16.23
2018-11-01T05:50:42.446Z,18.30
2018-11-01T05:53:10.691Z,18.50
2018-11-01T05:55:38.935Z,17.43
2018-11-01T05:58:07.151Z,19.80
2018-11-01T06:00:35.358Z,16.17
2018-11-01T06:03:03.669Z,18.77
2018-11-01T06:05:31.947Z,19.43
2018-11-01T06:08:07.885Z,16.03
2018-11-01T06:10:37.552Z,18.33
2018-11-01T06:13:05.818Z,21.17
2018-11-01T06:15:34.065Z,24.57
2018-11-01T06:18:02.323Z,18.93
2018-11-01T06:20:30.645Z,17.30
2018-11-01T06:22:58.827Z,19.20
2018-11-01T06:25:27.043Z,21.03
2018-11-01T06:27:55.275Z,20.30
2018-11-01T06:30:23.553Z,20.60
2018-11-01T06:32:51.753Z,20.50
2018-11-01T06:35:24.000Z,20.03
2018-11-01T06:37:52.295Z,18.53
2018-11-01T06:40:20.524Z,18.47
2018-11-01T06:42:48.983Z,16.43
2018-11-01T06:45:17.712Z,21.00
2018-11-01T06:47:45.955Z,18.73
2018-11-01T06:50:14.169Z,19.20
2018-11-01T06:52:42.443Z,18.73
2018-11-01T06:55:11.465Z,20.97
2018-11-01T06:57:39.688Z,21.53
2018-11-01T07:00:10.982Z,24.17
2018-11-01T07:02:39.484Z,21.63
2018-11-01T07:05:07.914Z,21.83
2018-11-01T07:07:36.444Z,26.43
2018-11-01T07:10:05.367Z,30.70
2018-11-01T07:12:33.611Z,32.70
2018-11-01T07:15:01.846Z,31.43
2018-11-01T07:17:30.339Z,30.17
2018-11-01T07:19:58.328Z,31.13
2018-11-01T07:22:26.545Z,30.10
2018-11-01T07:24:54.744Z,29.33
2018-11-01T07:27:22.952Z,29.83
2018-11-01T07:29:51.148Z,31.30
2018-11-01T07:32:19.411Z,29.00
2018-11-01T07:34:47.595Z,33.90
2018-11-01T07:37:15.815Z,38.17
2018-11-01T07:39:44.034Z,38.90
2018-11-01T07:42:12.272Z,42.13
2018-11-01T07:44:40.476Z,40.20
2018-11-01T07:47:08.677Z,40.93
2018-11-01T07:49:36.906Z,38.60
2018-11-01T07:52:05.107Z,44.70
2018-11-01T07:54:33.403Z,42.07
2018-11-01T07:57:01.632Z,41.90
2018-11-01T07:59:29.878Z,42.37
2018-11-01T08:01:58.151Z,33.87
2018-11-01T08:04:26.392Z,28.93
2018-11-01T08:06:54.575Z,33.40
2018-11-01T08:09:22.811Z,31.33
2018-11-01T08:11:51.086Z,31.30
2018-11-01T08:14:19.247Z,30.50
2018-11-01T08:16:47.531Z,32.13
2018-11-01T08:19:15.741Z,31.03
2018-11-01T08:21:44.015Z,36.27
2018-11-01T08:24:12.243Z,38.57
2018-11-01T08:26:40.504Z,42.40
2018-11-01T08:29:08.719Z,42.43
2018-11-01T08:31:36.976Z,43.40
2018-11-01T08:34:05.208Z,32.60
2018-11-01T08:36:33.425Z,32.20
2018-11-01T08:39:01.645Z,34.03
2018-11-01T08:41:29.852Z,29.20
2018-11-01T08:43:58.106Z,32.10
2018-11-01T08:46:26.354Z,30.07
2018-11-01T08:48:54.636Z,30.83
2018-11-01T08:51:22.851Z,26.20
2018-11-01T08:53:51.132Z,27.60
2018-11-01T08:56:19.415Z,27.60
2018-11-01T08:58:47.627Z,27.90
2018-11-01T09:01:15.837Z,28.33
2018-11-01T09:03:44.073Z,28.77
2018-11-01T09:06:12.280Z,26.60
2018-11-01T09:08:40.512Z,22.87
2018-11-01T09:11:08.716Z,26.90
2018-11-01T09:13:36.932Z,23.13
2018-11-01T09:16:05.922Z,28.13
2018-11-01T09:18:34.141Z,23.83
2018-11-01T09:21:02.388Z,23.77
2018-11-01T09:23:30.648Z,28.80
2018-11-01T09:25:58.866Z,23.50
2018-11-01T09:28:27.103Z,25.33
2018-11-01T09:30:55.351Z,25.57
2018-11-01T09:33:23.572Z,23.37
2018-11-01T09:35:51.827Z,23.00
2018-11-01T09:38:20.040Z,23.77
2018-11-01T09:40:48.262Z,25.43
2018-11-01T09:43:16.464Z,22.77
2018-11-01T09:45:44.674Z,21.47
2018-11-01T09:48:12.891Z,22.40
2018-11-01T09:50:41.106Z,23.33
2018-11-01T09:53:09.319Z,23.73
2018-11-01T09:55:37.599Z,22.37
2018-11-01T09:58:05.768Z,22.73
2018-11-01T10:00:34.019Z,25.63
2018-11-01T10:03:02.224Z,23.83
2018-11-01T10:05:30.439Z,20.77
2018-11-01T10:07:58.667Z,24.27
2018-11-01T10:10:26.889Z,20.60
2018-11-01T10:12:55.088Z,21.13
2018-11-01T10:15:23.408Z,21.77
2018-11-01T10:17:51.932Z,20.73
2018-11-01T10:20:19.849Z,22.60
2018-11-01T10:22:48.199Z,20.57
2018-11-01T10:25:16.411Z,18.17
2018-11-01T10:27:44.653Z,17.27
2018-11-01T10:30:14.964Z,16.93
2018-11-01T10:32:43.767Z,13.70
2018-11-01T10:35:12.019Z,17.23
2018-11-01T10:37:40.376Z,12.43
2018-11-01T10:40:11.232Z,14.10
2018-11-01T10:42:40.431Z,12.70
2018-11-01T10:45:09.015Z,14.93
2018-11-01T10:47:37.602Z,12.83
2018-11-01T10:50:08.612Z,15.40
2018-11-01T10:52:36.962Z,19.13
2018-11-01T10:55:06.515Z,13.93
2018-11-01T10:57:34.766Z,10.37
2018-11-01T11:00:03.058Z,12.97
2018-11-01T11:02:31.252Z,12.67
2018-11-01T11:04:59.471Z,11.47
2018-11-01T11:07:27.677Z,14.30
2018-11-01T11:09:55.919Z,10.40
2018-11-01T11:12:24.115Z,12.60
2018-11-01T11:14:52.326Z,13.77
2018-11-01T11:17:20.575Z,10.77
2018-11-01T11:19:48.834Z,13.23
2018-11-01T11:22:17.057Z,13.90
2018-11-01T11:24:45.259Z,13.00
2018-11-01T11:27:13.479Z,11.13
2018-11-01T11:29:41.686Z,12.13
2018-11-01T11:32:09.915Z,11.93
2018-11-01T11:34:38.127Z,11.10
2018-11-01T11:37:06.350Z,11.27
2018-11-01T11:39:34.610Z,11.77
2018-11-01T11:42:02.843Z,17.03
2018-11-01T11:44:31.072Z,13.53
2018-11-01T11:46:59.300Z,11.97
2018-11-01T11:49:27.499Z,14.63
2018-11-01T11:51:55.728Z,11.90
2018-11-01T11:54:23.952Z,11.03
2018-11-01T11:56:52.418Z,12.50
2018-11-01T11:59:20.632Z,13.27
2018-11-01T12:01:48.852Z,14.73
2018-11-01T12:04:17.085Z,12.87
2018-11-01T12:06:45.320Z,12.93
2018-11-01T12:09:13.524Z,13.37
2018-11-01T12:11:41.732Z,14.10
2018-11-01T12:14:09.998Z,12.93
2018-11-01T12:16:38.180Z,16.23
2018-11-01T12:19:06.383Z,13.87
2018-11-01T12:21:34.623Z,12.00
2018-11-01T12:24:02.836Z,13.53
2018-11-01T12:26:31.353Z,16.87
2018-11-01T12:28:59.656Z,15.27
2018-11-01T12:31:27.919Z,142.63
2018-11-01T12:33:56.944Z,14.70
2018-11-01T12:36:25.177Z,12.83
2018-11-01T12:38:53.404Z,12.90
2018-11-01T12:41:21.689Z,15.53
2018-11-01T12:43:49.908Z,13.33
2018-11-01T12:46:18.127Z,13.80
2018-11-01T12:48:46.335Z,14.47
2018-11-01T12:51:14.610Z,11.93
2018-11-01T12:53:42.819Z,13.50
2018-11-01T12:56:11.331Z,14.67
2018-11-01T12:58:39.544Z,14.37
2018-11-01T13:01:07.796Z,12.77
2018-11-01T13:03:36.679Z,12.67
2018-11-01T13:06:04.976Z,13.93
2018-11-01T13:08:33.241Z,13.53
2018-11-01T13:11:01.482Z,17.37
2018-11-01T13:13:29.697Z,14.23
2018-11-01T13:15:57.915Z,17.73
2018-11-01T13:18:26.161Z,16.23
2018-11-01T13:20:54.373Z,19.13
2018-11-01T13:23:22.595Z,21.13
2018-11-01T13:25:50.869Z,30.37
2018-11-01T13:28:19.109Z,17.27
2018-11-01T13:30:47.307Z,19.83
2018-11-01T13:33:15.971Z,19.93
2018-11-01T13:35:44.207Z,16.27
2018-11-01T13:38:12.460Z,16.90
2018-11-01T13:40:40.978Z,18.40
2018-11-01T13:43:08.922Z,16.87
2018-11-01T13:45:37.140Z,16.93
2018-11-01T13:48:05.573Z,13.60
2018-11-01T13:50:33.692Z,15.70
2018-11-01T13:53:01.939Z,13.60
2018-11-01T13:55:30.182Z,17.20
2018-11-01T13:57:58.432Z,15.50
2018-11-01T14:00:26.632Z,15.07
2018-11-01T14:02:54.834Z,17.00
2018-11-01T14:05:23.040Z,13.90
2018-11-01T14:07:51.304Z,15.33
2018-11-01T14:10:19.545Z,15.20
2018-11-01T14:12:47.763Z,15.13
2018-11-01T14:15:16.386Z,14.70
2018-11-01T14:17:44.224Z,12.40
2018-11-01T14:20:13.203Z,17.87
2018-11-01T14:22:41.470Z,11.73
2018-11-01T14:25:10.511Z,19.43
2018-11-01T14:27:38.768Z,20.40
2018-11-01T14:30:10.702Z,13.87
2018-11-01T14:32:39.289Z,17.57
2018-11-01T14:35:07.832Z,14.83
2018-11-01T14:37:36.074Z,16.67
2018-11-01T14:40:05.408Z,26.47
2018-11-01T14:42:33.684Z,22.47
2018-11-01T14:45:01.897Z,24.20
2018-11-01T14:47:30.139Z,19.37
2018-11-01T14:49:58.348Z,23.23
2018-11-01T14:52:27.121Z,25.60
2018-11-01T14:54:55.546Z,24.37
2018-11-01T14:57:24.441Z,27.33
2018-11-01T14:59:51.951Z,21.63
2018-11-01T15:02:19.568Z,25.43
2018-11-01T15:04:47.772Z,23.50
2018-11-01T15:07:16.036Z,21.93
2018-11-01T15:09:44.310Z,20.53
2018-11-01T15:12:12.684Z,21.40
2018-11-01T15:14:41.204Z,23.03
2018-11-01T15:17:09.479Z,21.87
2018-11-01T15:19:37.688Z,19.57
2018-11-01T15:22:05.887Z,21.27
2018-11-01T15:24:34.135Z,25.33
2018-11-01T15:27:02.344Z,24.57
2018-11-01T15:29:30.576Z,20.90
2018-11-01T15:32:01.931Z,23.30
2018-11-01T15:34:30.872Z,29.93
2018-11-01T15:36:59.096Z,26.53
2018-11-01T15:39:27.325Z,23.00
2018-11-01T15:41:55.584Z,25.63
2018-11-01T15:44:23.883Z,30.30
2018-11-01T15:46:52.129Z,30.30
2018-11-01T15:49:20.432Z,36.73
2018-11-01T15:51:48.699Z,30.83
2018-11-01T15:54:16.929Z,49.50
2018-11-01T15:56:45.173Z,45.17
2018-11-01T15:59:13.407Z,62.63
2018-11-01T16:01:41.640Z,51.00
2018-11-01T16:04:09.908Z,35.33
2018-11-01T16:06:38.124Z,36.70
2018-11-01T16:09:09.137Z,46.13
2018-11-01T16:11:37.559Z,47.10
2018-11-01T16:14:05.847Z,47.33
2018-11-01T16:16:34.054Z,53.47
2018-11-01T16:19:02.315Z,47.17
2018-11-01T16:21:30.554Z,46.27
2018-11-01T16:23:58.839Z,57.40
2018-11-01T16:26:27.043Z,75.50
2018-11-01T16:28:55.275Z,78.17
2018-11-01T16:31:23.500Z,69.70
2018-11-01T16:33:51.749Z,73.23
2018-11-01T16:36:19.956Z,83.63
2018-11-01T16:38:48.325Z,61.67
2018-11-01T16:41:16.551Z,57.63
2018-11-01T16:43:44.841Z,53.03
2018-11-01T16:46:13.066Z,40.37
2018-11-01T16:48:41.310Z,45.37
2018-11-01T16:51:09.597Z,42.57
2018-11-01T16:53:37.816Z,40.10
2018-11-01T16:56:06.318Z,33.27
2018-11-01T16:58:34.528Z,29.93
2018-11-01T17:01:02.796Z,31.13
2018-11-01T17:03:31.155Z,31.83
2018-11-01T17:05:59.384Z,28.20
2018-11-01T17:08:28.664Z,30.40
2018-11-01T17:10:57.687Z,28.60
2018-11-01T17:13:25.902Z,25.20
2018-11-01T17:15:54.124Z,28.27
2018-11-01T17:18:22.362Z,29.23
2018-11-01T17:20:50.591Z,27.67
2018-11-01T17:23:18.790Z,27.63
2018-11-01T17:25:47.036Z,25.27
2018-11-01T17:28:15.597Z,28.03
2018-11-01T17:30:43.856Z,23.10
2018-11-01T17:33:12.104Z,22.77
2018-11-01T17:35:40.334Z,21.47
2018-11-01T17:38:08.550Z,20.83
2018-11-01T17:40:36.784Z,20.17
2018-11-01T17:43:05.060Z,19.00
2018-11-01T17:45:33.317Z,20.70
2018-11-01T17:48:01.516Z,18.50
2018-11-01T17:50:29.780Z,26.30
2018-11-01T17:52:58.012Z,35.40
2018-11-01T17:55:26.277Z,41.60
2018-11-01T17:57:54.484Z,39.43
2018-11-01T18:00:26.988Z,45.43
2018-11-01T18:02:55.286Z,41.13
2018-11-01T18:05:23.456Z,38.90
2018-11-01T18:07:51.681Z,34.77
2018-11-01T18:10:19.954Z,29.50
2018-11-01T18:12:48.181Z,29.53
2018-11-01T18:15:16.446Z,27.40
2018-11-01T18:17:44.656Z,25.53
2018-11-01T18:20:13.675Z,22.30
2018-11-01T18:22:42.215Z,17.60
2018-11-01T18:25:11.828Z,22.17
2018-11-01T18:27:40.080Z,20.93
2018-11-01T18:30:10.435Z,24.53
2018-11-01T18:32:38.861Z,21.77
2018-11-01T18:35:07.420Z,26.57
2018-11-01T18:37:35.771Z,24.20
2018-11-01T18:40:04.173Z,22.60
2018-11-01T18:42:32.500Z,21.40
2018-11-01T18:45:00.705Z,20.90
2018-11-01T18:47:28.937Z,23.07
2018-11-01T18:49:57.131Z,19.73
2018-11-01T18:52:25.431Z,18.70
2018-11-01T18:54:53.661Z,23.97
2018-11-01T18:57:21.883Z,23.90
2018-11-01T18:59:50.100Z,18.33
2018-11-01T19:02:18.315Z,16.77
2018-11-01T19:04:46.559Z,17.73
2018-11-01T19:07:14.793Z,18.43
2018-11-01T19:09:43.002Z,18.67
2018-11-01T19:12:11.218Z,18.13
2018-11-01T19:14:39.668Z,19.40
2018-11-01T19:17:07.723Z,15.97
2018-11-01T19:19:35.990Z,17.17
2018-11-01T19:22:04.324Z,16.87
2018-11-01T19:24:32.559Z,15.30
2018-11-01T19:27:00.944Z,15.63
2018-11-01T19:29:29.043Z,16.47
2018-11-01T19:31:57.275Z,16.30
2018-11-01T19:34:25.698Z,19.60
2018-11-01T19:36:53.773Z,20.13
2018-11-01T19:39:22.136Z,20.97
2018-11-01T19:41:50.385Z,20.37
2018-11-01T19:44:18.879Z,14.93
2018-11-01T19:46:47.124Z,16.23
2018-11-01T19:49:15.491Z,16.63
2018-11-01T19:51:43.730Z,15.93
2018-11-01T19:54:12.093Z,18.10
2018-11-01T19:56:40.477Z,15.23
2018-11-01T19:59:08.719Z,13.43
2018-11-01T20:01:37.067Z,18.97
2018-11-01T20:04:05.405Z,14.40
2018-11-01T20:06:33.564Z,16.23
2018-11-01T20:09:01.836Z,17.97
2018-11-01T20:11:29.991Z,17.70
2018-11-01T20:13:58.263Z,15.87
2018-11-01T20:16:26.462Z,15.13
2018-11-01T20:18:54.787Z,14.30
2018-11-01T20:21:23.014Z,14.20
2018-11-01T20:23:51.191Z,13.03
2018-11-01T20:26:19.421Z,12.57
2018-11-01T20:28:47.696Z,10.83
2018-11-01T20:31:16.070Z,11.50
2018-11-01T20:33:44.438Z,10.80
2018-11-01T20:36:12.547Z,12.63
2018-11-01T20:38:40.886Z,10.30
2018-11-01T20:41:09.012Z,10.17
2018-11-01T20:43:37.275Z,9.77
2018-11-01T20:46:05.529Z,11.00
2018-11-01T20:48:33.753Z,10.77
2018-11-01T20:51:01.976Z,10.03
2018-11-01T20:53:30.283Z,9.20
2018-11-01T20:55:58.502Z,10.93
2018-11-01T20:58:26.748Z,11.63
2018-11-01T21:00:54.996Z,11.80
2018-11-01T21:03:23.231Z,11.03
2018-11-01T21:05:51.439Z,8.87
2018-11-01T21:08:19.799Z,7.77
2018-11-01T21:10:48.059Z,10.13
2018-11-01T21:13:16.255Z,9.30
2018-11-01T21:15:44.446Z,7.80
2018-11-01T21:18:12.957Z,8.17
2018-11-01T21:20:41.181Z,9.90
2018-11-01T21:23:09.399Z,9.00
2018-11-01T21:25:37.613Z,13.07
2018-11-01T21:28:05.908Z,10.37
2018-11-01T21:30:34.131Z,11.27
2018-11-01T21:33:02.609Z,10.00
2018-11-01T21:35:30.937Z,12.53
2018-11-01T21:37:59.097Z,11.33
2018-11-01T21:40:27.311Z,13.23
2018-11-01T21:42:55.801Z,10.17
2018-11-01T21:45:24.034Z,10.53
2018-11-01T21:47:52.347Z,9.03
2018-11-01T21:50:20.641Z,9.30
2018-11-01T21:52:48.977Z,11.63
2018-11-01T21:55:17.228Z,10.20
2018-11-01T21:57:45.500Z,10.70
2018-11-01T22:00:13.805Z,11.67
2018-11-01T22:02:42.504Z,14.77
2018-11-01T22:05:11.410Z,11.33
2018-11-01T22:07:39.965Z,11.50
2018-11-01T22:10:08.865Z,10.53
2018-11-01T22:12:37.159Z,9.83
2018-11-01T22:15:07.027Z,10.73
2018-11-01T22:17:35.253Z,12.50
2018-11-01T22:20:03.807Z,9.30
2018-11-01T22:22:32.002Z,9.27
2018-11-01T22:25:00.269Z,10.80
2018-11-01T22:27:28.487Z,10.43
2018-11-01T22:29:56.690Z,9.70
2018-11-01T22:32:24.963Z,10.00
2018-11-01T22:34:53.179Z,10.40
2018-11-01T22:37:21.376Z,11.43
2018-11-01T22:39:49.651Z,10.63
2018-11-01T22:42:17.900Z,10.37
2018-11-01T22:44:46.383Z,11.03
2018-11-01T22:47:14.613Z,9.90
2018-11-01T22:49:42.897Z,9.93
2018-11-01T22:52:11.099Z,14.00
2018-11-01T22:54:39.317Z,12.43
2018-11-01T22:57:07.555Z,9.30
2018-11-01T22:59:35.805Z,9.67
2018-11-01T23:02:04.003Z,11.13
2018-11-01T23:04:32.232Z,11.77
2018-11-01T23:07:00.447Z,9.83
2018-11-01T23:09:28.688Z,11.90
2018-11-01T23:11:56.908Z,10.87
2018-11-01T23:14:25.135Z,8.80
2018-11-01T23:16:53.348Z,17.00
2018-11-01T23:19:21.643Z,10.60
2018-11-01T23:21:49.892Z,8.67
2018-11-01T23:24:18.144Z,12.17
2018-11-01T23:26:46.356Z,11.13
2018-11-01T23:29:14.592Z,10.93
2018-11-01T23:31:42.801Z,10.60
2018-11-01T23:34:11.053Z,11.20
2018-11-01T23:36:44.824Z,13.63
2018-11-01T23:39:18.322Z,11.20
2018-11-01T23:41:51.869Z,10.57
2018-11-01T23:44:25.551Z,10.17
2018-11-01T23:46:59.067Z,8.53
2018-11-01T23:49:28.938Z,10.30
2018-11-01T23:52:01.148Z,8.87
2018-11-01T23:54:29.487Z,10.73
2018-11-01T23:56:57.702Z,10.87
2018-11-01T23:59:25.936Z,10.33
